Samadhi — ZCOY9 — position and weather

sailwx.info

Track history (hours):
 
Tides and Currents Weather Stations Pressure Air Temp Water Temp Dewpoint Dewpoint Depression Visibility Wind Speed Wind Dir Waves Ship Positions

Samadhi

Last reported at 2016-Jul-25 16:24 UTC. Time now 2016-Jul-27 19:16 UTC.
Position N 38°46' E 001°27'.

Length 61 m; draft 3.3 m.

Type: Pleasure craft. MMSI: 319420000.

Date/timePositionNaut miles runAvg speedWind from/ knotsBaromVisibWave heightAir tempDewpointWater temp
2016-Jul-25 16:24N 38°46' E 001°27'15 0.4
2016-Jul-24 00:33N 38°58' E 001°39'1312.2
2016-Jul-23 23:30N 39°07' E 001°51'1413.2
2016-Jul-23 22:27N 39°16' E 002°04'1213.3
2016-Jul-23 21:33N 39°24' E 002°15'10 1.0
2016-Jul-23 12:19N 39°31' E 002°24'810.0
2016-Jul-23 11:32N 39°27' E 002°32'8 8.3
2016-Jul-23 10:33N 39°34' E 002°38'0 0.0
2016-Jul-23 09:27N 39°34' E 002°38'0 0.0
2016-Jul-23 08:33N 39°34' E 002°38'0 0.0
2016-Jul-23 07:33N 39°34' E 002°38'0 0.0
2016-Jul-23 06:33N 39°34' E 002°38'0 0.0
2016-Jul-23 04:33N 39°34' E 002°38'0 0.0
2016-Jul-23 03:33N 39°34' E 002°38'0 0.0
2016-Jul-23 02:33N 39°34' E 002°38'0 0.0
2016-Jul-23 01:33N 39°34' E 002°38'0 0.0
2016-Jul-23 00:33N 39°34' E 002°38'0 0.0
2016-Jul-22 23:33N 39°34' E 002°38'0 0.0
2016-Jul-22 22:33N 39°34' E 002°38'0 0.0
2016-Jul-22 21:33N 39°34' E 002°38'0 0.0
2016-Jul-22 20:33N 39°34' E 002°38'0 0.0
2016-Jul-22 19:33N 39°34' E 002°38'0 0.0
2016-Jul-22 18:33N 39°34' E 002°38'0 0.0
2016-Jul-22 17:33N 39°34' E 002°38'0 0.0
2016-Jul-22 16:33N 39°34' E 002°38'0 0.0
2016-Jul-22 15:33N 39°34' E 002°38'0 0.0
2016-Jul-22 14:33N 39°34' E 002°38'0 0.0
2016-Jul-22 13:33N 39°34' E 002°38'0 0.1
2016-Jul-22 12:32N 39°33' E 002°38'0 0.0
2016-Jul-22 11:29N 39°33' E 002°38'0 0.0
2016-Jul-22 10:32N 39°33' E 002°38'0 0.0
2016-Jul-22 09:32N 39°33' E 002°38'0 0.0
2016-Jul-22 08:32N 39°33' E 002°38'0 0.0
2016-Jul-22 07:32N 39°33' E 002°38'0 0.0
2016-Jul-22 04:32N 39°33' E 002°38'0 0.0
2016-Jul-22 03:32N 39°33' E 002°38'0 0.0
2016-Jul-22 02:32N 39°33' E 002°38'0 0.0
2016-Jul-22 01:32N 39°33' E 002°38'0 0.0
2016-Jul-22 00:29N 39°33' E 002°38'0 0.0
2016-Jul-21 23:29N 39°33' E 002°38'0 0.0
2016-Jul-21 22:26N 39°33' E 002°38'0 0.0
2016-Jul-21 21:32N 39°33' E 002°38'0 0.0
2016-Jul-21 20:32N 39°33' E 002°38'0 0.0
2016-Jul-21 19:32N 39°33' E 002°38'0 0.0
2016-Jul-21 18:32N 39°33' E 002°38'0 0.0
2016-Jul-21 17:32N 39°33' E 002°38'0 0.0
2016-Jul-21 16:32N 39°33' E 002°38'0 0.0
2016-Jul-21 15:32N 39°33' E 002°38'0 0.0
2016-Jul-21 14:29N 39°33' E 002°38'0 0.0
2016-Jul-21 13:29N 39°33' E 002°38'0 0.0
2016-Jul-21 12:32N 39°33' E 002°38'0 0.0
2016-Jul-21 11:14N 39°33' E 002°38'0 0.0
2016-Jul-21 10:32N 39°33' E 002°38'0 0.0
2016-Jul-21 09:32N 39°33' E 002°38'0 0.0
2016-Jul-21 08:32N 39°33' E 002°38'0 0.2
2016-Jul-21 07:33N 39°34' E 002°38'0 0.4
2016-Jul-21 06:29N 39°34' E 002°38'0 0.0
2016-Jul-21 05:32N 39°34' E 002°38'0 0.0
2016-Jul-21 04:29N 39°34' E 002°38'0 0.0
2016-Jul-21 03:23N 39°34' E 002°38'0 0.0
2016-Jul-21 02:32N 39°34' E 002°38'0 0.0
2016-Jul-21 01:29N 39°34' E 002°38'0 0.0
2016-Jul-21 00:32N 39°34' E 002°38'0 0.0
2016-Jul-20 23:29N 39°34' E 002°38'0 0.0
2016-Jul-20 22:29N 39°34' E 002°38'0 0.0
2016-Jul-20 21:32N 39°34' E 002°38'0 0.0
2016-Jul-20 20:32N 39°34' E 002°38'0 0.0
2016-Jul-20 19:32N 39°34' E 002°38'0 0.0
2016-Jul-20 18:29N 39°34' E 002°38'0 0.0
2016-Jul-20 17:26N 39°34' E 002°38'0 0.0
2016-Jul-20 16:32N 39°34' E 002°38'0 0.0
2016-Jul-20 15:29N 39°34' E 002°38'0 0.0
2016-Jul-20 14:29N 39°34' E 002°38'0 0.0
2016-Jul-20 13:29N 39°34' E 002°38'0 0.0
2016-Jul-20 12:32N 39°34' E 002°38'0 0.0
2016-Jul-20 11:32N 39°34' E 002°38'0 0.0
2016-Jul-20 10:32N 39°34' E 002°38'0 0.0
2016-Jul-20 09:32N 39°34' E 002°38'0 0.0
2016-Jul-20 08:29N 39°34' E 002°38'0 0.0
2016-Jul-20 07:29N 39°34' E 002°38'0 0.0
2016-Jul-20 06:32N 39°34' E 002°38'0 0.0
2016-Jul-20 05:32N 39°34' E 002°38'0 0.0
2016-Jul-20 04:32N 39°34' E 002°38'0 0.0
2016-Jul-20 03:32N 39°34' E 002°38'0 0.0
2016-Jul-20 02:32N 39°34' E 002°38'0 0.0
2016-Jul-20 01:32N 39°34' E 002°38'0 0.0
2016-Jul-20 00:29N 39°34' E 002°38'0 0.0
2016-Jul-19 23:32N 39°34' E 002°38'0 0.0
2016-Jul-19 22:32N 39°34' E 002°38'0 0.0
2016-Jul-19 21:32N 39°34' E 002°38'0 0.0
2016-Jul-19 20:32N 39°34' E 002°38'0 0.0
2016-Jul-19 19:32N 39°34' E 002°38'0 0.0
2016-Jul-19 18:32N 39°34' E 002°38'0 0.0
2016-Jul-19 17:29N 39°34' E 002°38'0 0.0
2016-Jul-19 16:29N 39°34' E 002°38'0 0.0
2016-Jul-19 15:32N 39°34' E 002°38'0 0.0
2016-Jul-19 14:26N 39°34' E 002°38'0 0.0
2016-Jul-19 13:32N 39°34' E 002°38'0 0.0
2016-Jul-19 12:32N 39°34' E 002°38'0 0.0
2016-Jul-19 11:32N 39°34' E 002°38'0 0.0
2016-Jul-19 10:29N 39°34' E 002°38'0 0.0
2016-Jul-19 09:32N 39°34' E 002°38'0 0.0
2016-Jul-19 08:29N 39°34' E 002°38'0 0.0
2016-Jul-19 07:32N 39°34' E 002°38'0 0.0
2016-Jul-19 04:29N 39°34' E 002°38'0 0.0
2016-Jul-19 03:32N 39°34' E 002°38'0 0.0
2016-Jul-19 02:32N 39°34' E 002°38'0 0.0
2016-Jul-19 01:32N 39°34' E 002°38'0 0.0
2016-Jul-19 00:32N 39°34' E 002°38'0 0.0
2016-Jul-18 23:32N 39°34' E 002°38'0 0.0
2016-Jul-18 22:32N 39°34' E 002°38'0 0.0
2016-Jul-18 21:32N 39°34' E 002°38'0 0.0
2016-Jul-18 20:23N 39°34' E 002°38'0 0.0
2016-Jul-18 19:32N 39°34' E 002°38'0 0.0
2016-Jul-18 18:32N 39°34' E 002°38'0 0.0
2016-Jul-18 17:08N 39°34' E 002°38'0 0.0
2016-Jul-18 16:32N 39°34' E 002°38'0 0.0
2016-Jul-18 15:32N 39°34' E 002°38'0 0.0
2016-Jul-18 14:32N 39°34' E 002°38'0 0.0
2016-Jul-18 13:32N 39°34' E 002°38'0 0.0
2016-Jul-18 12:32N 39°34' E 002°38'0 0.0
2016-Jul-18 11:32N 39°34' E 002°38'0 0.0
2016-Jul-18 10:32N 39°34' E 002°38'0 0.0
2016-Jul-18 09:32N 39°34' E 002°38'0 0.0
2016-Jul-18 08:32N 39°34' E 002°38'0 0.0
2016-Jul-18 07:32N 39°34' E 002°38'0 0.0
2016-Jul-18 06:32N 39°34' E 002°38'0 0.0
2016-Jul-18 05:29N 39°34' E 002°38'0 0.0
2016-Jul-18 04:32N 39°34' E 002°38'0 0.0
2016-Jul-18 03:32N 39°34' E 002°38'0 0.0
2016-Jul-18 02:32N 39°34' E 002°38'0 0.0
2016-Jul-18 01:29N 39°34' E 002°38'0 0.0
2016-Jul-18 00:32N 39°34' E 002°38'0 0.0
2016-Jul-17 23:32N 39°34' E 002°38'0 0.0
2016-Jul-17 22:32N 39°34' E 002°38'0 0.0
2016-Jul-17 21:32N 39°34' E 002°38'0 0.0
2016-Jul-17 20:32N 39°34' E 002°38'0 0.0
2016-Jul-17 19:32N 39°34' E 002°38'0 0.0
2016-Jul-17 18:32N 39°34' E 002°38'0 0.0
2016-Jul-17 17:32N 39°34' E 002°38'0 0.0
2016-Jul-17 16:32N 39°34' E 002°38'0 0.0
2016-Jul-17 15:32N 39°34' E 002°38'0 0.0
2016-Jul-17 14:32N 39°34' E 002°38'0 0.0
2016-Jul-17 13:32N 39°34' E 002°38'0 0.0
2016-Jul-17 12:29N 39°34' E 002°38'0 0.0
2016-Jul-17 11:29N 39°34' E 002°38'0 0.0
2016-Jul-17 10:32N 39°34' E 002°38'0 0.0
2016-Jul-17 09:32N 39°34' E 002°38'0 0.0
2016-Jul-17 08:32N 39°34' E 002°38'0 0.0
2016-Jul-17 07:29N 39°34' E 002°38'0 0.0
2016-Jul-17 06:32N 39°34' E 002°38'0 0.0
2016-Jul-17 04:32N 39°34' E 002°38'0 0.0
2016-Jul-17 03:32N 39°34' E 002°38'0 0.0
2016-Jul-17 02:32N 39°34' E 002°38'0 0.0
2016-Jul-17 01:32N 39°34' E 002°38'0 0.0
2016-Jul-17 00:32N 39°34' E 002°38'0 0.0
2016-Jul-16 23:29N 39°34' E 002°38'0 0.0
2016-Jul-16 22:32N 39°34' E 002°38'0 0.0
2016-Jul-16 21:17N 39°34' E 002°38'0 0.0
2016-Jul-16 20:32N 39°34' E 002°38'0 0.0
2016-Jul-16 19:32N 39°34' E 002°38'0 0.0
2016-Jul-16 18:29N 39°34' E 002°38'0 0.0
2016-Jul-16 17:32N 39°34' E 002°38'0 0.0
2016-Jul-16 16:32N 39°34' E 002°38'0 0.0
2016-Jul-16 15:32N 39°34' E 002°38'0 0.0
2016-Jul-16 14:32N 39°34' E 002°38'0 0.0
2016-Jul-16 13:32N 39°34' E 002°38'0 0.0
2016-Jul-16 12:32N 39°34' E 002°38'0 0.0
2016-Jul-16 11:32N 39°34' E 002°38'0 0.0
2016-Jul-16 10:32N 39°34' E 002°38'0 0.0
2016-Jul-16 09:32N 39°34' E 002°38'0 0.0
2016-Jul-16 08:32N 39°34' E 002°38'0 0.0
2016-Jul-16 07:32N 39°34' E 002°38'0 0.0
2016-Jul-16 06:32N 39°34' E 002°38'0 0.0
2016-Jul-16 04:32N 39°34' E 002°38'0 0.0
2016-Jul-16 03:32N 39°34' E 002°38'0 0.0
2016-Jul-16 02:32N 39°34' E 002°38'0 0.0
2016-Jul-16 01:32N 39°34' E 002°38'0 0.0
2016-Jul-16 00:32N 39°34' E 002°38'0 0.0
2016-Jul-15 23:32N 39°34' E 002°38'0 0.0
2016-Jul-15 22:32N 39°34' E 002°38'0 0.0
2016-Jul-15 21:32N 39°34' E 002°38'0 0.0
2016-Jul-15 20:32N 39°34' E 002°38'0 0.0
2016-Jul-15 19:32N 39°34' E 002°38'0 0.0
2016-Jul-15 18:32N 39°34' E 002°38'0 0.0
2016-Jul-15 17:32N 39°34' E 002°38'0 0.0
2016-Jul-15 16:32N 39°34' E 002°38'  
Track history (hours):
 
Tides and Currents Weather Stations Pressure Air Temp Water Temp Dewpoint Dewpoint Depression Visibility Wind Speed Wind Dir Waves Ship Positions

Samadhi

Last reported at 2016-Jul-25 16:24 UTC. Time now 2016-Jul-27 19:16 UTC.
Position N 38°46' E 001°27'.

Length 61 m; draft 3.3 m.

Type: Pleasure craft. MMSI: 319420000.

Date/timePositionNaut miles runAvg speedWind from/ knotsBaromVisibWave heightAir tempDewpointWater temp
2016-Jul-25 16:24N 38°46' E 001°27'15 0.4
2016-Jul-24 00:33N 38°58' E 001°39'1312.2
2016-Jul-23 23:30N 39°07' E 001°51'1413.2
2016-Jul-23 22:27N 39°16' E 002°04'1213.3
2016-Jul-23 21:33N 39°24' E 002°15'10 1.0
2016-Jul-23 12:19N 39°31' E 002°24'810.0
2016-Jul-23 11:32N 39°27' E 002°32'8 8.3
2016-Jul-23 10:33N 39°34' E 002°38'0 0.0
2016-Jul-23 09:27N 39°34' E 002°38'0 0.0
2016-Jul-23 08:33N 39°34' E 002°38'0 0.0
2016-Jul-23 07:33N 39°34' E 002°38'0 0.0
2016-Jul-23 06:33N 39°34' E 002°38'0 0.0
2016-Jul-23 04:33N 39°34' E 002°38'0 0.0
2016-Jul-23 03:33N 39°34' E 002°38'0 0.0
2016-Jul-23 02:33N 39°34' E 002°38'0 0.0
2016-Jul-23 01:33N 39°34' E 002°38'0 0.0
2016-Jul-23 00:33N 39°34' E 002°38'0 0.0
2016-Jul-22 23:33N 39°34' E 002°38'0 0.0
2016-Jul-22 22:33N 39°34' E 002°38'0 0.0
2016-Jul-22 21:33N 39°34' E 002°38'0 0.0
2016-Jul-22 20:33N 39°34' E 002°38'0 0.0
2016-Jul-22 19:33N 39°34' E 002°38'0 0.0
2016-Jul-22 18:33N 39°34' E 002°38'0 0.0
2016-Jul-22 17:33N 39°34' E 002°38'0 0.0
2016-Jul-22 16:33N 39°34' E 002°38'0 0.0
2016-Jul-22 15:33N 39°34' E 002°38'0 0.0
2016-Jul-22 14:33N 39°34' E 002°38'0 0.0
2016-Jul-22 13:33N 39°34' E 002°38'0 0.1
2016-Jul-22 12:32N 39°33' E 002°38'0 0.0
2016-Jul-22 11:29N 39°33' E 002°38'0 0.0
2016-Jul-22 10:32N 39°33' E 002°38'0 0.0
2016-Jul-22 09:32N 39°33' E 002°38'0 0.0
2016-Jul-22 08:32N 39°33' E 002°38'0 0.0
2016-Jul-22 07:32N 39°33' E 002°38'0 0.0
2016-Jul-22 04:32N 39°33' E 002°38'0 0.0
2016-Jul-22 03:32N 39°33' E 002°38'0 0.0
2016-Jul-22 02:32N 39°33' E 002°38'0 0.0
2016-Jul-22 01:32N 39°33' E 002°38'0 0.0
2016-Jul-22 00:29N 39°33' E 002°38'0 0.0
2016-Jul-21 23:29N 39°33' E 002°38'0 0.0
2016-Jul-21 22:26N 39°33' E 002°38'0 0.0
2016-Jul-21 21:32N 39°33' E 002°38'0 0.0
2016-Jul-21 20:32N 39°33' E 002°38'0 0.0
2016-Jul-21 19:32N 39°33' E 002°38'0 0.0
2016-Jul-21 18:32N 39°33' E 002°38'0 0.0
2016-Jul-21 17:32N 39°33' E 002°38'0 0.0
2016-Jul-21 16:32N 39°33' E 002°38'0 0.0
2016-Jul-21 15:32N 39°33' E 002°38'0 0.0
2016-Jul-21 14:29N 39°33' E 002°38'0 0.0
2016-Jul-21 13:29N 39°33' E 002°38'0 0.0
2016-Jul-21 12:32N 39°33' E 002°38'0 0.0
2016-Jul-21 11:14N 39°33' E 002°38'0 0.0
2016-Jul-21 10:32N 39°33' E 002°38'0 0.0
2016-Jul-21 09:32N 39°33' E 002°38'0 0.0
2016-Jul-21 08:32N 39°33' E 002°38'0 0.2
2016-Jul-21 07:33N 39°34' E 002°38'0 0.4
2016-Jul-21 06:29N 39°34' E 002°38'0 0.0
2016-Jul-21 05:32N 39°34' E 002°38'0 0.0
2016-Jul-21 04:29N 39°34' E 002°38'0 0.0
2016-Jul-21 03:23N 39°34' E 002°38'0 0.0
2016-Jul-21 02:32N 39°34' E 002°38'0 0.0
2016-Jul-21 01:29N 39°34' E 002°38'0 0.0
2016-Jul-21 00:32N 39°34' E 002°38'0 0.0
2016-Jul-20 23:29N 39°34' E 002°38'0 0.0
2016-Jul-20 22:29N 39°34' E 002°38'0 0.0
2016-Jul-20 21:32N 39°34' E 002°38'0 0.0
2016-Jul-20 20:32N 39°34' E 002°38'0 0.0
2016-Jul-20 19:32N 39°34' E 002°38'0 0.0
2016-Jul-20 18:29N 39°34' E 002°38'0 0.0
2016-Jul-20 17:26N 39°34' E 002°38'0 0.0
2016-Jul-20 16:32N 39°34' E 002°38'0 0.0
2016-Jul-20 15:29N 39°34' E 002°38'0 0.0
2016-Jul-20 14:29N 39°34' E 002°38'0 0.0
2016-Jul-20 13:29N 39°34' E 002°38'0 0.0
2016-Jul-20 12:32N 39°34' E 002°38'0 0.0
2016-Jul-20 11:32N 39°34' E 002°38'0 0.0
2016-Jul-20 10:32N 39°34' E 002°38'0 0.0
2016-Jul-20 09:32N 39°34' E 002°38'0 0.0
2016-Jul-20 08:29N 39°34' E 002°38'0 0.0
2016-Jul-20 07:29N 39°34' E 002°38'0 0.0
2016-Jul-20 06:32N 39°34' E 002°38'0 0.0
2016-Jul-20 05:32N 39°34' E 002°38'0 0.0
2016-Jul-20 04:32N 39°34' E 002°38'0 0.0
2016-Jul-20 03:32N 39°34' E 002°38'0 0.0
2016-Jul-20 02:32N 39°34' E 002°38'0 0.0
2016-Jul-20 01:32N 39°34' E 002°38'0 0.0
2016-Jul-20 00:29N 39°34' E 002°38'0 0.0
2016-Jul-19 23:32N 39°34' E 002°38'0 0.0
2016-Jul-19 22:32N 39°34' E 002°38'0 0.0
2016-Jul-19 21:32N 39°34' E 002°38'0 0.0
2016-Jul-19 20:32N 39°34' E 002°38'0 0.0
2016-Jul-19 19:32N 39°34' E 002°38'0 0.0
2016-Jul-19 18:32N 39°34' E 002°38'0 0.0
2016-Jul-19 17:29N 39°34' E 002°38'0 0.0
2016-Jul-19 16:29N 39°34' E 002°38'0 0.0
2016-Jul-19 15:32N 39°34' E 002°38'0 0.0
2016-Jul-19 14:26N 39°34' E 002°38'0 0.0
2016-Jul-19 13:32N 39°34' E 002°38'0 0.0
2016-Jul-19 12:32N 39°34' E 002°38'0 0.0
2016-Jul-19 11:32N 39°34' E 002°38'0 0.0
2016-Jul-19 10:29N 39°34' E 002°38'0 0.0
2016-Jul-19 09:32N 39°34' E 002°38'0 0.0
2016-Jul-19 08:29N 39°34' E 002°38'0 0.0
2016-Jul-19 07:32N 39°34' E 002°38'0 0.0
2016-Jul-19 04:29N 39°34' E 002°38'0 0.0
2016-Jul-19 03:32N 39°34' E 002°38'0 0.0
2016-Jul-19 02:32N 39°34' E 002°38'0 0.0
2016-Jul-19 01:32N 39°34' E 002°38'0 0.0
2016-Jul-19 00:32N 39°34' E 002°38'0 0.0
2016-Jul-18 23:32N 39°34' E 002°38'0 0.0
2016-Jul-18 22:32N 39°34' E 002°38'0 0.0
2016-Jul-18 21:32N 39°34' E 002°38'0 0.0
2016-Jul-18 20:23N 39°34' E 002°38'0 0.0
2016-Jul-18 19:32N 39°34' E 002°38'0 0.0
2016-Jul-18 18:32N 39°34' E 002°38'0 0.0
2016-Jul-18 17:08N 39°34' E 002°38'0 0.0
2016-Jul-18 16:32N 39°34' E 002°38'0 0.0
2016-Jul-18 15:32N 39°34' E 002°38'0 0.0
2016-Jul-18 14:32N 39°34' E 002°38'0 0.0
2016-Jul-18 13:32N 39°34' E 002°38'0 0.0
2016-Jul-18 12:32N 39°34' E 002°38'0 0.0
2016-Jul-18 11:32N 39°34' E 002°38'0 0.0
2016-Jul-18 10:32N 39°34' E 002°38'0 0.0
2016-Jul-18 09:32N 39°34' E 002°38'0 0.0
2016-Jul-18 08:32N 39°34' E 002°38'0 0.0
2016-Jul-18 07:32N 39°34' E 002°38'0 0.0
2016-Jul-18 06:32N 39°34' E 002°38'0 0.0
2016-Jul-18 05:29N 39°34' E 002°38'0 0.0
2016-Jul-18 04:32N 39°34' E 002°38'0 0.0
2016-Jul-18 03:32N 39°34' E 002°38'0 0.0
2016-Jul-18 02:32N 39°34' E 002°38'0 0.0
2016-Jul-18 01:29N 39°34' E 002°38'0 0.0
2016-Jul-18 00:32N 39°34' E 002°38'0 0.0
2016-Jul-17 23:32N 39°34' E 002°38'0 0.0
2016-Jul-17 22:32N 39°34' E 002°38'0 0.0
2016-Jul-17 21:32N 39°34' E 002°38'0 0.0
2016-Jul-17 20:32N 39°34' E 002°38'0 0.0
2016-Jul-17 19:32N 39°34' E 002°38'0 0.0
2016-Jul-17 18:32N 39°34' E 002°38'0 0.0
2016-Jul-17 17:32N 39°34' E 002°38'0 0.0
2016-Jul-17 16:32N 39°34' E 002°38'0 0.0
2016-Jul-17 15:32N 39°34' E 002°38'0 0.0
2016-Jul-17 14:32N 39°34' E 002°38'0 0.0
2016-Jul-17 13:32N 39°34' E 002°38'0 0.0
2016-Jul-17 12:29N 39°34' E 002°38'0 0.0
2016-Jul-17 11:29N 39°34' E 002°38'0 0.0
2016-Jul-17 10:32N 39°34' E 002°38'0 0.0
2016-Jul-17 09:32N 39°34' E 002°38'0 0.0
2016-Jul-17 08:32N 39°34' E 002°38'0 0.0
2016-Jul-17 07:29N 39°34' E 002°38'0 0.0
2016-Jul-17 06:32N 39°34' E 002°38'0 0.0
2016-Jul-17 04:32N 39°34' E 002°38'0 0.0
2016-Jul-17 03:32N 39°34' E 002°38'0 0.0
2016-Jul-17 02:32N 39°34' E 002°38'0 0.0
2016-Jul-17 01:32N 39°34' E 002°38'0 0.0
2016-Jul-17 00:32N 39°34' E 002°38'0 0.0
2016-Jul-16 23:29N 39°34' E 002°38'0 0.0
2016-Jul-16 22:32N 39°34' E 002°38'0 0.0
2016-Jul-16 21:17N 39°34' E 002°38'0 0.0
2016-Jul-16 20:32N 39°34' E 002°38'0 0.0
2016-Jul-16 19:32N 39°34' E 002°38'0 0.0
2016-Jul-16 18:29N 39°34' E 002°38'0 0.0
2016-Jul-16 17:32N 39°34' E 002°38'0 0.0
2016-Jul-16 16:32N 39°34' E 002°38'0 0.0
2016-Jul-16 15:32N 39°34' E 002°38'0 0.0
2016-Jul-16 14:32N 39°34' E 002°38'0 0.0
2016-Jul-16 13:32N 39°34' E 002°38'0 0.0
2016-Jul-16 12:32N 39°34' E 002°38'0 0.0
2016-Jul-16 11:32N 39°34' E 002°38'0 0.0
2016-Jul-16 10:32N 39°34' E 002°38'0 0.0
2016-Jul-16 09:32N 39°34' E 002°38'0 0.0
2016-Jul-16 08:32N 39°34' E 002°38'0 0.0
2016-Jul-16 07:32N 39°34' E 002°38'0 0.0
2016-Jul-16 06:32N 39°34' E 002°38'0 0.0
2016-Jul-16 04:32N 39°34' E 002°38'0 0.0
2016-Jul-16 03:32N 39°34' E 002°38'0 0.0
2016-Jul-16 02:32N 39°34' E 002°38'0 0.0
2016-Jul-16 01:32N 39°34' E 002°38'0 0.0
2016-Jul-16 00:32N 39°34' E 002°38'0 0.0
2016-Jul-15 23:32N 39°34' E 002°38'0 0.0
2016-Jul-15 22:32N 39°34' E 002°38'0 0.0
2016-Jul-15 21:32N 39°34' E 002°38'0 0.0
2016-Jul-15 20:32N 39°34' E 002°38'0 0.0
2016-Jul-15 19:32N 39°34' E 002°38'0 0.0
2016-Jul-15 18:32N 39°34' E 002°38'0 0.0
2016-Jul-15 17:32N 39°34' E 002°38'0 0.0
2016-Jul-15 16:32N 39°34' E 002°38'  

Dump ship's entire track history